EGKB/BQH METAR and TAF weather

Enter ICAO airport designator
Station Type Date Time Source
EGKB METAR 2021/08/01 17:50 UTC NOAA

EGKB 011750Z 02010KT 9999 VCSH FEW019 16/13 Q1012


Station Type Date Time Source
EGKB Decoded METAR 2021/08/01 17:50 UTC NOAA

Biggin Hill , United Kingdom (EGKB) 51-19N 000-02E
Aug 01, 2021 - 01:50 PM EDT / 2021.08.01 1750 UTC
Wind: from the NNE (020 degrees) at 12 MPH (10 KT):0
Visibility: greater than 7 mile(s):0
Sky conditions: mostly clear
Weather: showers in the vicinity
Temperature: 60 F (16 C)
Dew Point: 55 F (13 C)
Relative Humidity: 82%
Pressure (altimeter): 29.88 in. Hg (1012 hPa)
ob: EGKB 011750Z 02010KT 9999 VCSH FEW019 16/13 Q1012
cycle: 18

Station Type Date Time Source
EGKB TAF 2020/08/09 21:40 UTC NOAA

TAF EGKB 092127Z 0921/1021 CNL

Example: see airport list